createdAt,value
2023-04-22T00:02:02.801Z,8.83
2023-04-22T00:05:07.858Z,8.78
2023-04-22T00:08:10.520Z,8.74
2023-04-22T00:11:13.130Z,8.71
2023-04-22T00:14:15.726Z,8.64
2023-04-22T00:17:18.342Z,8.58
2023-04-22T00:20:22.408Z,8.56
2023-04-22T00:23:25.026Z,8.54
2023-04-22T00:26:27.594Z,8.51
2023-04-22T00:29:30.182Z,8.50
2023-04-22T00:32:32.735Z,8.50
2023-04-22T00:35:36.598Z,8.48
2023-04-22T00:38:39.164Z,8.43
2023-04-22T00:41:41.691Z,8.40
2023-04-22T00:44:44.223Z,8.36
2023-04-22T00:47:46.855Z,8.35
2023-04-22T00:50:50.831Z,8.33
2023-04-22T00:53:53.398Z,8.29
2023-04-22T00:56:56.191Z,8.23
2023-04-22T00:59:58.737Z,8.18
2023-04-22T01:03:01.502Z,8.13
2023-04-22T01:06:05.608Z,8.11
2023-04-22T01:09:08.189Z,8.08
2023-04-22T01:12:10.719Z,8.00
2023-04-22T01:15:13.229Z,7.91
2023-04-22T01:18:16.203Z,7.83
2023-04-22T01:21:20.089Z,7.77
2023-04-22T01:24:23.974Z,7.75
2023-04-22T01:27:26.566Z,7.71
2023-04-22T01:30:29.113Z,7.71
2023-04-22T01:33:31.799Z,7.73
2023-04-22T01:36:34.784Z,7.71
2023-04-22T01:39:38.983Z,7.65
2023-04-22T01:42:41.664Z,7.64
2023-04-22T01:45:44.239Z,7.63
2023-04-22T01:48:50.364Z,7.62
2023-04-22T01:51:52.952Z,7.59
2023-04-22T01:54:56.853Z,7.53
2023-04-22T01:57:59.423Z,7.49
2023-04-22T02:01:01.993Z,7.47
2023-04-22T02:04:04.524Z,7.44
2023-04-22T02:07:07.023Z,7.38
2023-04-22T02:10:12.327Z,7.26
2023-04-22T02:13:14.892Z,7.19
2023-04-22T02:16:17.441Z,7.17
2023-04-22T02:19:20.022Z,7.15
2023-04-22T02:22:22.654Z,7.13
2023-04-22T02:25:26.940Z,7.12
2023-04-22T02:28:29.514Z,7.12
2023-04-22T02:31:32.199Z,7.10
2023-04-22T02:34:34.765Z,7.09
2023-04-22T02:37:37.426Z,7.07
2023-04-22T02:40:41.358Z,7.07
2023-04-22T02:43:46.466Z,7.07
2023-04-22T02:46:49.097Z,7.04
2023-04-22T02:49:51.713Z,7.00
2023-04-22T02:52:54.335Z,6.93
2023-04-22T02:55:58.331Z,6.86
2023-04-22T02:59:00.871Z,6.80
2023-04-22T03:02:06.516Z,6.76
2023-04-22T03:05:10.224Z,6.69
2023-04-22T03:08:12.772Z,6.66
2023-04-22T03:11:16.707Z,6.65
2023-04-22T03:14:19.287Z,6.62
2023-04-22T03:17:21.960Z,6.57
2023-04-22T03:20:24.551Z,6.56
2023-04-22T03:23:27.118Z,6.52
2023-04-22T03:26:31.038Z,6.47
2023-04-22T03:29:33.585Z,6.40
2023-04-22T03:32:36.149Z,6.39
2023-04-22T03:35:38.739Z,6.43
2023-04-22T03:38:41.269Z,6.44
2023-04-22T03:41:45.138Z,6.46
2023-04-22T03:44:47.727Z,6.47
2023-04-22T03:47:50.309Z,6.49
2023-04-22T03:50:53.090Z,6.50
2023-04-22T03:53:55.674Z,6.52
2023-04-22T03:56:59.563Z,6.49
2023-04-22T04:00:02.104Z,6.48
2023-04-22T04:03:04.951Z,6.49
2023-04-22T04:06:07.673Z,6.49
2023-04-22T04:09:10.924Z,6.52
2023-04-22T04:12:14.837Z,6.54
2023-04-22T04:15:18.894Z,6.56
2023-04-22T04:18:21.576Z,6.55
2023-04-22T04:21:24.174Z,6.55
2023-04-22T04:24:26.816Z,6.58
2023-04-22T04:27:30.725Z,6.58
2023-04-22T04:30:33.629Z,6.58
2023-04-22T04:33:37.784Z,6.61
2023-04-22T04:36:40.351Z,6.63
2023-04-22T04:39:43.434Z,6.63
2023-04-22T04:42:47.447Z,6.62
2023-04-22T04:45:50.010Z,6.60
2023-04-22T04:48:53.942Z,6.58
2023-04-22T04:51:56.473Z,6.60
2023-04-22T04:54:59.036Z,6.63
2023-04-22T04:58:02.940Z,6.64
2023-04-22T05:01:06.171Z,6.67
2023-04-22T05:04:08.885Z,6.69
2023-04-22T05:07:11.574Z,6.72
2023-04-22T05:10:14.483Z,6.73
2023-04-22T05:13:18.353Z,6.75
2023-04-22T05:16:20.997Z,6.77
2023-04-22T05:19:23.665Z,6.79
2023-04-22T05:22:26.187Z,6.81
2023-04-22T05:25:28.754Z,6.83
2023-04-22T05:28:32.674Z,6.82
2023-04-22T05:31:35.211Z,6.84
2023-04-22T05:34:37.746Z,6.87
2023-04-22T05:37:40.493Z,6.88
2023-04-22T05:40:43.088Z,6.89
2023-04-22T05:43:47.292Z,6.92
2023-04-22T05:46:49.799Z,6.94
2023-04-22T05:49:52.585Z,6.94
2023-04-22T05:52:55.087Z,6.96
2023-04-22T05:55:57.589Z,6.98
2023-04-22T05:59:01.516Z,7.00
2023-04-22T06:02:04.167Z,7.02
2023-04-22T06:05:07.861Z,7.05
2023-04-22T06:08:10.626Z,7.10
2023-04-22T06:11:13.217Z,7.14
2023-04-22T06:14:17.124Z,7.18
2023-04-22T06:17:19.682Z,7.22
2023-04-22T06:20:22.486Z,7.25
2023-04-22T06:23:25.035Z,7.28
2023-04-22T06:26:27.685Z,7.34
2023-04-22T06:29:31.633Z,7.38
2023-04-22T06:32:34.198Z,7.42
2023-04-22T06:35:36.729Z,7.47
2023-04-22T06:38:39.279Z,7.48
2023-04-22T06:41:44.281Z,7.52
2023-04-22T06:44:48.228Z,7.58
2023-04-22T06:47:51.252Z,7.63
2023-04-22T06:50:53.792Z,7.67
2023-04-22T06:53:58.204Z,7.73
2023-04-22T06:57:01.557Z,7.77
2023-04-22T07:00:06.089Z,7.83
2023-04-22T07:03:08.757Z,7.88
2023-04-22T07:06:11.389Z,7.92
2023-04-22T07:09:13.905Z,7.96
2023-04-22T07:12:16.872Z,8.01
2023-04-22T07:15:20.836Z,8.08
2023-04-22T07:18:23.407Z,8.15
2023-04-22T07:21:26.185Z,8.21
2023-04-22T07:24:28.717Z,8.29
2023-04-22T07:27:31.288Z,8.40
2023-04-22T07:30:35.296Z,8.55
2023-04-22T07:33:37.892Z,8.71
2023-04-22T07:36:40.426Z,8.81
2023-04-22T07:39:43.013Z,8.88
2023-04-22T07:42:45.575Z,8.91
2023-04-22T07:45:49.445Z,8.94
2023-04-22T07:48:52.050Z,9.04
2023-04-22T07:51:54.638Z,9.19
2023-04-22T07:54:57.189Z,9.39
2023-04-22T07:58:00.845Z,9.54
2023-04-22T08:01:05.237Z,9.69
2023-04-22T08:04:08.414Z,9.84
2023-04-22T08:10:16.732Z,10.07
2023-04-22T08:13:19.341Z,10.16
2023-04-22T08:16:23.342Z,10.19
2023-04-22T08:19:25.943Z,10.21
2023-04-22T08:22:28.495Z,10.25
2023-04-22T08:25:31.471Z,10.27
2023-04-22T08:28:34.000Z,10.27
2023-04-22T08:31:37.927Z,10.31
2023-04-22T08:34:40.862Z,10.35
2023-04-22T08:37:43.558Z,10.45
2023-04-22T08:40:46.144Z,10.61
2023-04-22T08:43:49.126Z,10.79
2023-04-22T08:46:53.266Z,10.92
2023-04-22T08:49:56.223Z,11.00
2023-04-22T08:52:58.776Z,11.09
2023-04-22T08:56:01.330Z,11.12
2023-04-22T08:59:04.231Z,11.21
2023-04-22T09:02:08.693Z,11.38
2023-04-22T09:05:11.519Z,11.46
2023-04-22T09:08:14.038Z,11.50
2023-04-22T09:11:16.581Z,11.53
2023-04-22T09:14:19.817Z,11.53
2023-04-22T09:17:32.105Z,11.50
2023-04-22T09:20:34.707Z,11.49
2023-04-22T09:23:46.477Z,11.49
2023-04-22T09:26:49.262Z,11.46
2023-04-22T09:29:52.338Z,11.47
2023-04-22T09:32:57.040Z,11.53
2023-04-22T09:35:59.668Z,11.58
2023-04-22T09:39:04.974Z,11.62
2023-04-22T09:42:07.483Z,11.67
2023-04-22T09:45:10.601Z,11.72
2023-04-22T09:48:15.142Z,11.76
2023-04-22T09:51:17.778Z,11.82
2023-04-22T09:54:20.428Z,11.84
2023-04-22T09:57:23.089Z,11.93
2023-04-22T10:00:27.036Z,12.04
2023-04-22T10:03:30.930Z,12.17
2023-04-22T10:06:33.534Z,12.25
2023-04-22T10:09:36.261Z,12.30
2023-04-22T10:12:38.872Z,12.40
2023-04-22T10:15:42.347Z,12.45
2023-04-22T10:18:46.224Z,12.50
2023-04-22T10:21:51.474Z,12.57
2023-04-22T10:24:55.995Z,12.55
2023-04-22T10:28:03.199Z,12.52
2023-04-22T10:31:07.460Z,12.49
2023-04-22T10:34:13.042Z,12.46
2023-04-22T10:37:15.767Z,12.41
2023-04-22T10:40:18.845Z,12.32
2023-04-22T10:43:21.364Z,12.28
2023-04-22T10:47:00.958Z,12.29
2023-04-22T10:50:18.562Z,12.27
2023-04-22T10:53:36.134Z,12.26
2023-04-22T10:57:01.791Z,12.26
2023-04-22T11:03:37.716Z,12.23
2023-04-22T11:06:41.722Z,12.19
2023-04-22T11:09:45.417Z,12.13
2023-04-22T11:12:47.994Z,12.09
2023-04-22T11:15:51.116Z,12.04
2023-04-22T11:18:53.806Z,11.98
2023-04-22T11:21:58.581Z,11.95
2023-04-22T11:25:01.578Z,11.92
2023-04-22T11:28:04.486Z,11.85
2023-04-22T11:31:07.778Z,11.79
2023-04-22T11:34:10.470Z,11.71
2023-04-22T11:37:14.358Z,11.66
2023-04-22T11:40:30.002Z,11.65
2023-04-22T11:43:34.278Z,11.65
2023-04-22T11:46:39.373Z,11.64
2023-04-22T11:49:41.960Z,11.65
2023-04-22T11:52:50.184Z,11.64
2023-04-22T11:55:52.925Z,11.59
2023-04-22T11:58:55.447Z,11.53
2023-04-22T12:01:57.994Z,11.52
2023-04-22T12:05:00.653Z,11.51
2023-04-22T12:08:05.496Z,11.49
2023-04-22T12:11:09.327Z,11.48
2023-04-22T12:14:11.884Z,11.48
2023-04-22T12:17:15.527Z,11.46
2023-04-22T12:20:18.149Z,11.45
2023-04-22T12:23:22.077Z,11.43
2023-04-22T12:26:26.881Z,11.41
2023-04-22T12:29:31.722Z,11.40
2023-04-22T12:32:34.343Z,11.39
2023-04-22T12:35:36.876Z,11.40
2023-04-22T12:38:41.306Z,11.40
2023-04-22T12:41:43.905Z,11.40
2023-04-22T12:44:46.830Z,11.39
2023-04-22T12:47:49.648Z,11.43
2023-04-22T12:50:52.267Z,11.47
2023-04-22T12:53:56.121Z,11.48
2023-04-22T12:56:58.827Z,11.45
2023-04-22T13:00:01.450Z,11.44
2023-04-22T13:03:04.190Z,11.45
2023-04-22T13:06:07.048Z,11.44
2023-04-22T13:09:10.981Z,11.46
2023-04-22T13:12:13.549Z,11.44
2023-04-22T13:15:16.843Z,11.44
2023-04-22T13:18:19.537Z,11.45
2023-04-22T13:21:22.178Z,11.46
2023-04-22T13:24:26.396Z,11.48
2023-04-22T13:27:29.691Z,11.48
2023-04-22T13:30:32.305Z,11.47
2023-04-22T13:33:34.803Z,11.42
2023-04-22T13:36:37.346Z,11.41
2023-04-22T13:39:41.404Z,11.40
2023-04-22T13:42:44.412Z,11.41
2023-04-22T13:45:48.251Z,11.38
2023-04-22T13:48:50.923Z,11.37
2023-04-22T13:51:53.496Z,11.38
2023-04-22T13:54:57.366Z,11.37
2023-04-22T13:58:01.106Z,11.37
2023-04-22T14:01:04.158Z,11.36
2023-04-22T14:04:06.912Z,11.36
2023-04-22T14:07:09.493Z,11.33
2023-04-22T14:10:13.724Z,11.30
2023-04-22T14:13:16.275Z,11.28
2023-04-22T14:16:19.737Z,11.27
2023-04-22T14:19:24.188Z,11.25
2023-04-22T14:22:26.833Z,11.24
2023-04-22T14:25:30.731Z,11.21
2023-04-22T14:28:33.273Z,11.19
2023-04-22T14:31:35.873Z,11.18
2023-04-22T14:34:39.083Z,11.16
2023-04-22T14:37:43.422Z,11.16
2023-04-22T14:40:47.321Z,11.15
2023-04-22T14:43:49.891Z,11.13
2023-04-22T14:46:52.477Z,11.14
2023-04-22T14:49:55.076Z,11.12
2023-04-22T14:52:57.715Z,11.11
2023-04-22T14:56:01.571Z,11.09
2023-04-22T14:59:04.161Z,11.06
2023-04-22T15:02:07.182Z,11.05
2023-04-22T15:05:10.065Z,11.04
2023-04-22T15:08:12.637Z,11.04
2023-04-22T15:11:16.574Z,11.01
2023-04-22T15:14:19.156Z,10.99
2023-04-22T15:17:21.817Z,10.95
2023-04-22T15:20:24.494Z,10.93
2023-04-22T15:23:27.035Z,10.93
2023-04-22T15:26:30.949Z,10.96
2023-04-22T15:29:33.491Z,10.92
2023-04-22T15:32:37.045Z,10.90
2023-04-22T15:35:41.256Z,10.87
2023-04-22T15:38:43.770Z,10.90
2023-04-22T15:41:47.718Z,10.94
2023-04-22T15:44:50.442Z,10.98
2023-04-22T15:47:53.880Z,11.02
2023-04-22T15:50:56.398Z,11.08
2023-04-22T15:53:59.191Z,11.14
2023-04-22T15:57:03.525Z,11.21
2023-04-22T16:00:11.863Z,11.29
2023-04-22T16:03:16.258Z,11.31
2023-04-22T16:06:18.922Z,11.34
2023-04-22T16:09:21.494Z,11.40
2023-04-22T16:12:25.412Z,11.44
2023-04-22T16:15:27.991Z,11.49
2023-04-22T16:18:30.578Z,11.57
2023-04-22T16:21:33.866Z,11.67
2023-04-22T16:24:36.588Z,11.76
2023-04-22T16:27:40.620Z,11.77
2023-04-22T16:30:43.228Z,11.71
2023-04-22T16:33:46.213Z,11.70
2023-04-22T16:36:48.792Z,11.68
2023-04-22T16:39:51.492Z,11.65
2023-04-22T16:42:57.158Z,11.62
2023-04-22T16:45:59.934Z,11.61
2023-04-22T16:49:02.485Z,11.62
2023-04-22T16:52:05.030Z,11.60
2023-04-22T16:55:08.613Z,11.65
2023-04-22T16:58:12.588Z,11.71
2023-04-22T17:01:15.158Z,11.74
2023-04-22T17:04:18.207Z,11.80
2023-04-22T17:07:21.079Z,11.85
2023-04-22T17:10:24.649Z,11.84
2023-04-22T17:13:28.556Z,11.74
2023-04-22T17:16:31.094Z,11.65
2023-04-22T17:19:33.686Z,11.51
2023-04-22T17:22:36.257Z,11.51
2023-04-22T17:25:38.794Z,11.48
2023-04-22T17:28:42.693Z,11.48
2023-04-22T17:31:46.010Z,11.50
2023-04-22T17:34:48.733Z,11.51
2023-04-22T17:37:53.457Z,11.52
2023-04-22T17:40:56.079Z,11.53
2023-04-22T17:43:59.971Z,11.52
2023-04-22T17:47:03.972Z,11.49
2023-04-22T17:50:09.141Z,11.42
2023-04-22T17:53:11.750Z,11.35
2023-04-22T17:56:14.263Z,11.27
2023-04-22T17:59:18.750Z,11.23
2023-04-22T18:02:22.077Z,11.17
2023-04-22T18:05:24.826Z,11.06
2023-04-22T18:08:27.477Z,10.99
2023-04-22T18:11:30.033Z,10.97
2023-04-22T18:14:33.919Z,10.96
2023-04-22T18:17:36.470Z,10.96
2023-04-22T18:20:39.049Z,10.98
2023-04-22T18:23:42.324Z,10.96
2023-04-22T18:26:47.027Z,10.92
2023-04-22T18:29:51.320Z,10.90
2023-04-22T18:32:53.954Z,10.86
2023-04-22T18:35:56.576Z,10.83
2023-04-22T18:38:59.092Z,10.81
2023-04-22T18:42:02.241Z,10.80
2023-04-22T18:45:07.520Z,10.76
2023-04-22T18:48:10.104Z,10.74
2023-04-22T18:51:13.448Z,10.70
2023-04-22T18:54:16.030Z,10.66
2023-04-22T18:57:18.628Z,10.64
2023-04-22T19:00:22.587Z,10.59
2023-04-22T19:03:25.398Z,10.53
2023-04-22T19:06:28.920Z,10.47
2023-04-22T19:09:32.261Z,10.42
2023-04-22T19:12:34.851Z,10.36
2023-04-22T19:15:38.765Z,10.31
2023-04-22T19:18:41.454Z,10.26
2023-04-22T19:21:44.073Z,10.18
2023-04-22T19:24:46.841Z,10.11
2023-04-22T19:27:49.437Z,10.06
2023-04-22T19:30:53.555Z,9.98
2023-04-22T19:33:56.170Z,9.87
2023-04-22T19:36:58.730Z,9.78
2023-04-22T19:40:01.321Z,9.71
2023-04-22T19:43:04.189Z,9.66
2023-04-22T19:46:08.174Z,9.65
2023-04-22T19:49:11.309Z,9.65
2023-04-22T19:52:15.486Z,9.62
2023-04-22T19:55:18.378Z,9.55
2023-04-22T19:58:20.983Z,9.49
2023-04-22T20:01:25.506Z,9.40
2023-04-22T20:04:29.789Z,9.28
2023-04-22T20:07:33.188Z,9.16
2023-04-22T20:10:35.875Z,9.07
2023-04-22T20:13:38.879Z,9.06
2023-04-22T20:16:43.434Z,9.07
2023-04-22T20:19:46.255Z,9.09
2023-04-22T20:22:48.780Z,9.10
2023-04-22T20:25:51.630Z,9.09
2023-04-22T20:28:54.624Z,9.06
2023-04-22T20:31:59.071Z,8.91
2023-04-22T20:35:02.159Z,8.78
2023-04-22T20:38:04.805Z,8.67
2023-04-22T20:41:08.399Z,8.61
2023-04-22T20:44:10.956Z,8.58
2023-04-22T20:47:16.341Z,8.58
2023-04-22T20:50:19.001Z,8.63
2023-04-22T20:53:21.597Z,8.64
2023-04-22T20:56:24.832Z,8.59
2023-04-22T20:59:27.607Z,8.58
2023-04-22T21:02:31.589Z,8.59
2023-04-22T21:05:40.613Z,8.57
2023-04-22T21:08:43.141Z,8.52
2023-04-22T21:11:46.116Z,8.42
2023-04-22T21:14:49.265Z,8.33
2023-04-22T21:17:56.394Z,8.26
2023-04-22T21:20:59.759Z,8.23
2023-04-22T21:24:02.719Z,8.21
2023-04-22T21:27:05.795Z,8.17
2023-04-22T21:30:09.875Z,8.12
2023-04-22T21:33:13.737Z,8.08
2023-04-22T21:36:16.269Z,8.07
2023-04-22T21:39:19.132Z,8.07
2023-04-22T21:42:21.631Z,8.01
2023-04-22T21:45:24.169Z,7.96
2023-04-22T21:48:28.133Z,7.93
2023-04-22T21:51:30.799Z,7.91
2023-04-22T21:54:33.390Z,7.88
2023-04-22T21:57:35.929Z,7.88
2023-04-22T22:00:38.683Z,7.88
2023-04-22T22:03:42.654Z,7.90
2023-04-22T22:06:45.631Z,7.85
2023-04-22T22:09:48.149Z,7.89
2023-04-22T22:12:50.740Z,7.83
2023-04-22T22:15:55.405Z,7.81
2023-04-22T22:19:02.331Z,7.78
2023-04-22T22:22:04.905Z,7.76
2023-04-22T22:25:08.788Z,7.75
2023-04-22T22:28:11.386Z,7.75
2023-04-22T22:31:14.603Z,7.75
2023-04-22T22:34:18.445Z,7.75
2023-04-22T22:37:20.975Z,7.76
2023-04-22T22:40:23.557Z,7.77
2023-04-22T22:43:26.677Z,7.79
2023-04-22T22:46:29.315Z,7.80
2023-04-22T22:49:33.527Z,7.79
2023-04-22T22:52:36.253Z,7.71
2023-04-22T22:55:38.817Z,7.68
2023-04-22T22:58:41.329Z,7.68
2023-04-22T23:01:44.059Z,7.66
2023-04-22T23:04:48.079Z,7.64
2023-04-22T23:07:50.639Z,7.65
2023-04-22T23:10:53.178Z,7.64
2023-04-22T23:13:56.231Z,7.60
2023-04-22T23:16:58.828Z,7.59
2023-04-22T23:20:02.804Z,7.58
2023-04-22T23:23:05.359Z,7.54
2023-04-22T23:26:08.729Z,7.52
2023-04-22T23:29:11.720Z,7.50
2023-04-22T23:32:16.337Z,7.48
2023-04-22T23:35:20.332Z,7.47
2023-04-22T23:38:22.922Z,7.47
2023-04-22T23:41:25.555Z,7.44
2023-04-22T23:44:28.092Z,7.41
2023-04-22T23:47:31.252Z,7.39
2023-04-22T23:50:35.545Z,7.37
2023-04-22T23:53:38.403Z,7.37
2023-04-22T23:56:41.769Z,7.37
2023-04-22T23:59:44.939Z,7.36
